sensor_id;sensor_type;location;lat;lon;timestamp;P1;durP1;ratioP1;P2;durP2;ratioP2
75413;SDS011;64758;52.122;5.404;2023-05-23T00:01:54;16.42;;;8.02;;
75413;SDS011;64758;52.122;5.404;2023-05-23T00:04:24;16.45;;;7.25;;
75413;SDS011;64758;52.122;5.404;2023-05-23T00:06:52;15.13;;;7.43;;
75413;SDS011;64758;52.122;5.404;2023-05-23T00:09:19;14.90;;;7.10;;
75413;SDS011;64758;52.122;5.404;2023-05-23T00:11:46;14.52;;;7.15;;
75413;SDS011;64758;52.122;5.404;2023-05-23T00:14:12;18.60;;;7.60;;
75413;SDS011;64758;52.122;5.404;2023-05-23T00:16:40;17.65;;;7.32;;
75413;SDS011;64758;52.122;5.404;2023-05-23T00:19:09;15.63;;;6.90;;
75413;SDS011;64758;52.122;5.404;2023-05-23T00:21:37;13.00;;;6.90;;
75413;SDS011;64758;52.122;5.404;2023-05-23T00:24:03;11.27;;;5.68;;
75413;SDS011;64758;52.122;5.404;2023-05-23T00:26:30;14.93;;;7.22;;
75413;SDS011;64758;52.122;5.404;2023-05-23T00:28:57;13.05;;;6.40;;
75413;SDS011;64758;52.122;5.404;2023-05-23T00:31:24;13.23;;;6.97;;
75413;SDS011;64758;52.122;5.404;2023-05-23T00:33:50;14.47;;;6.40;;
75413;SDS011;64758;52.122;5.404;2023-05-23T00:36:17;15.68;;;7.03;;
75413;SDS011;64758;52.122;5.404;2023-05-23T00:38:44;14.60;;;6.10;;
75413;SDS011;64758;52.122;5.404;2023-05-23T00:41:14;11.02;;;5.85;;
75413;SDS011;64758;52.122;5.404;2023-05-23T00:43:41;12.98;;;5.90;;
75413;SDS011;64758;52.122;5.404;2023-05-23T00:46:08;11.83;;;5.80;;
75413;SDS011;64758;52.122;5.404;2023-05-23T00:48:36;9.40;;;5.50;;
75413;SDS011;64758;52.122;5.404;2023-05-23T00:51:04;10.32;;;5.45;;
75413;SDS011;64758;52.122;5.404;2023-05-23T00:53:30;9.43;;;5.38;;
75413;SDS011;64758;52.122;5.404;2023-05-23T00:55:58;10.20;;;4.72;;
75413;SDS011;64758;52.122;5.404;2023-05-23T00:58:25;8.17;;;4.53;;
75413;SDS011;64758;52.122;5.404;2023-05-23T01:00:51;6.97;;;4.32;;
75413;SDS011;64758;52.122;5.404;2023-05-23T01:03:19;7.13;;;4.47;;
75413;SDS011;64758;52.122;5.404;2023-05-23T01:05:46;7.75;;;5.00;;
75413;SDS011;64758;52.122;5.404;2023-05-23T01:08:13;8.90;;;4.25;;
75413;SDS011;64758;52.122;5.404;2023-05-23T01:10:41;5.93;;;4.07;;
75413;SDS011;64758;52.122;5.404;2023-05-23T01:18:39;7.20;;;4.25;;
75413;SDS011;64758;52.122;5.404;2023-05-23T01:21:13;7.72;;;4.10;;
75413;SDS011;64758;52.122;5.404;2023-05-23T01:29:07;7.85;;;4.68;;
75413;SDS011;64758;52.122;5.404;2023-05-23T01:31:39;10.18;;;4.43;;
75413;SDS011;64758;52.122;5.404;2023-05-23T01:34:09;10.48;;;4.57;;
75413;SDS011;64758;52.122;5.404;2023-05-23T01:36:41;8.23;;;4.33;;
75413;SDS011;64758;52.122;5.404;2023-05-23T01:39:08;7.05;;;4.32;;
75413;SDS011;64758;52.122;5.404;2023-05-23T01:41:36;11.10;;;4.50;;
75413;SDS011;64758;52.122;5.404;2023-05-23T01:44:02;5.78;;;3.78;;
75413;SDS011;64758;52.122;5.404;2023-05-23T01:46:30;7.38;;;4.00;;
75413;SDS011;64758;52.122;5.404;2023-05-23T01:49:00;8.33;;;3.90;;
75413;SDS011;64758;52.122;5.404;2023-05-23T01:51:29;5.50;;;3.72;;
75413;SDS011;64758;52.122;5.404;2023-05-23T01:53:56;5.78;;;3.95;;
75413;SDS011;64758;52.122;5.404;2023-05-23T01:56:23;11.32;;;4.00;;
75413;SDS011;64758;52.122;5.404;2023-05-23T01:58:50;7.78;;;4.28;;
75413;SDS011;64758;52.122;5.404;2023-05-23T02:01:16;10.60;;;4.20;;
75413;SDS011;64758;52.122;5.404;2023-05-23T02:03:44;8.88;;;4.35;;
75413;SDS011;64758;52.122;5.404;2023-05-23T02:06:10;6.80;;;3.88;;
75413;SDS011;64758;52.122;5.404;2023-05-23T02:08:37;9.65;;;4.05;;
75413;SDS011;64758;52.122;5.404;2023-05-23T02:11:04;10.27;;;3.92;;
75413;SDS011;64758;52.122;5.404;2023-05-23T02:13:30;9.97;;;3.90;;
75413;SDS011;64758;52.122;5.404;2023-05-23T02:15:57;8.88;;;3.58;;
75413;SDS011;64758;52.122;5.404;2023-05-23T02:18:23;6.57;;;4.05;;
75413;SDS011;64758;52.122;5.404;2023-05-23T02:20:51;9.95;;;3.83;;
75413;SDS011;64758;52.122;5.404;2023-05-23T02:23:17;10.60;;;3.90;;
75413;SDS011;64758;52.122;5.404;2023-05-23T02:25:44;7.20;;;3.57;;
75413;SDS011;64758;52.122;5.404;2023-05-23T02:28:11;8.13;;;4.10;;
75413;SDS011;64758;52.122;5.404;2023-05-23T02:30:38;8.38;;;3.70;;
75413;SDS011;64758;52.122;5.404;2023-05-23T02:33:05;10.80;;;4.00;;
75413;SDS011;64758;52.122;5.404;2023-05-23T02:35:32;10.55;;;4.00;;
75413;SDS011;64758;52.122;5.404;2023-05-23T02:37:59;9.07;;;3.93;;
75413;SDS011;64758;52.122;5.404;2023-05-23T02:40:26;10.65;;;3.78;;
75413;SDS011;64758;52.122;5.404;2023-05-23T02:42:52;9.48;;;4.00;;
75413;SDS011;64758;52.122;5.404;2023-05-23T02:45:22;10.52;;;3.50;;
75413;SDS011;64758;52.122;5.404;2023-05-23T02:47:49;8.65;;;4.25;;
75413;SDS011;64758;52.122;5.404;2023-05-23T02:50:16;12.07;;;4.37;;
75413;SDS011;64758;52.122;5.404;2023-05-23T02:52:42;12.07;;;4.32;;
75413;SDS011;64758;52.122;5.404;2023-05-23T02:55:10;11.18;;;4.18;;
75413;SDS011;64758;52.122;5.404;2023-05-23T02:57:36;9.75;;;4.03;;
75413;SDS011;64758;52.122;5.404;2023-05-23T03:00:03;9.57;;;4.18;;
75413;SDS011;64758;52.122;5.404;2023-05-23T03:02:30;7.77;;;4.23;;
75413;SDS011;64758;52.122;5.404;2023-05-23T03:04:56;11.73;;;4.50;;
75413;SDS011;64758;52.122;5.404;2023-05-23T03:07:23;11.18;;;4.72;;
75413;SDS011;64758;52.122;5.404;2023-05-23T03:09:53;12.00;;;5.05;;
75413;SDS011;64758;52.122;5.404;2023-05-23T03:12:20;8.85;;;4.28;;
75413;SDS011;64758;52.122;5.404;2023-05-23T03:14:47;11.00;;;3.97;;
75413;SDS011;64758;52.122;5.404;2023-05-23T03:17:13;10.05;;;4.53;;
75413;SDS011;64758;52.122;5.404;2023-05-23T03:19:40;12.77;;;4.07;;
75413;SDS011;64758;52.122;5.404;2023-05-23T03:22:06;14.60;;;4.75;;
75413;SDS011;64758;52.122;5.404;2023-05-23T03:24:33;9.35;;;4.07;;
75413;SDS011;64758;52.122;5.404;2023-05-23T03:26:59;11.07;;;4.23;;
75413;SDS011;64758;52.122;5.404;2023-05-23T03:29:27;13.60;;;4.90;;
75413;SDS011;64758;52.122;5.404;2023-05-23T03:31:53;17.58;;;4.65;;
75413;SDS011;64758;52.122;5.404;2023-05-23T03:34:20;12.95;;;4.93;;
75413;SDS011;64758;52.122;5.404;2023-05-23T03:36:48;14.10;;;4.50;;
75413;SDS011;64758;52.122;5.404;2023-05-23T03:39:16;12.33;;;4.60;;
75413;SDS011;64758;52.122;5.404;2023-05-23T03:41:42;11.43;;;4.55;;
75413;SDS011;64758;52.122;5.404;2023-05-23T03:44:09;15.95;;;4.75;;
75413;SDS011;64758;52.122;5.404;2023-05-23T03:46:35;17.05;;;5.15;;
75413;SDS011;64758;52.122;5.404;2023-05-23T03:49:02;14.57;;;4.93;;
75413;SDS011;64758;52.122;5.404;2023-05-23T03:51:29;14.23;;;4.70;;
75413;SDS011;64758;52.122;5.404;2023-05-23T03:53:56;15.90;;;5.35;;
75413;SDS011;64758;52.122;5.404;2023-05-23T03:56:23;13.55;;;4.70;;
75413;SDS011;64758;52.122;5.404;2023-05-23T03:58:49;13.77;;;4.72;;
75413;SDS011;64758;52.122;5.404;2023-05-23T04:01:16;16.08;;;4.25;;
75413;SDS011;64758;52.122;5.404;2023-05-23T04:03:42;19.13;;;4.60;;
75413;SDS011;64758;52.122;5.404;2023-05-23T04:06:09;16.73;;;5.03;;
75413;SDS011;64758;52.122;5.404;2023-05-23T04:08:38;13.00;;;4.22;;
75413;SDS011;64758;52.122;5.404;2023-05-23T04:11:07;13.32;;;4.53;;
75413;SDS011;64758;52.122;5.404;2023-05-23T04:13:33;13.95;;;4.28;;
75413;SDS011;64758;52.122;5.404;2023-05-23T04:16:00;13.13;;;4.13;;
75413;SDS011;64758;52.122;5.404;2023-05-23T04:18:31;17.98;;;4.20;;
75413;SDS011;64758;52.122;5.404;2023-05-23T04:21:01;10.20;;;3.75;;
75413;SDS011;64758;52.122;5.404;2023-05-23T04:23:27;15.90;;;4.65;;
75413;SDS011;64758;52.122;5.404;2023-05-23T04:25:54;10.88;;;4.55;;
75413;SDS011;64758;52.122;5.404;2023-05-23T04:28:22;8.20;;;3.30;;
75413;SDS011;64758;52.122;5.404;2023-05-23T04:30:49;13.52;;;3.88;;
75413;SDS011;64758;52.122;5.404;2023-05-23T04:33:16;8.77;;;3.20;;
75413;SDS011;64758;52.122;5.404;2023-05-23T04:35:43;9.98;;;3.10;;
75413;SDS011;64758;52.122;5.404;2023-05-23T04:38:10;10.57;;;2.65;;
75413;SDS011;64758;52.122;5.404;2023-05-23T04:40:38;12.63;;;3.53;;
75413;SDS011;64758;52.122;5.404;2023-05-23T04:43:05;14.77;;;3.05;;
75413;SDS011;64758;52.122;5.404;2023-05-23T04:45:31;9.38;;;2.97;;
75413;SDS011;64758;52.122;5.404;2023-05-23T04:47:59;13.10;;;3.00;;
75413;SDS011;64758;52.122;5.404;2023-05-23T04:50:25;9.27;;;2.63;;
75413;SDS011;64758;52.122;5.404;2023-05-23T04:52:56;5.70;;;2.20;;
75413;SDS011;64758;52.122;5.404;2023-05-23T04:55:23;9.75;;;2.55;;
75413;SDS011;64758;52.122;5.404;2023-05-23T04:57:50;5.53;;;2.95;;
75413;SDS011;64758;52.122;5.404;2023-05-23T05:00:16;7.25;;;2.70;;
75413;SDS011;64758;52.122;5.404;2023-05-23T05:02:43;12.77;;;3.00;;
75413;SDS011;64758;52.122;5.404;2023-05-23T05:05:10;9.87;;;2.73;;
75413;SDS011;64758;52.122;5.404;2023-05-23T05:07:36;12.55;;;2.90;;
75413;SDS011;64758;52.122;5.404;2023-05-23T05:10:03;6.55;;;3.05;;
75413;SDS011;64758;52.122;5.404;2023-05-23T05:12:30;9.68;;;2.85;;
75413;SDS011;64758;52.122;5.404;2023-05-23T05:14:56;11.93;;;2.88;;
75413;SDS011;64758;52.122;5.404;2023-05-23T05:17:23;12.60;;;2.90;;
75413;SDS011;64758;52.122;5.404;2023-05-23T05:19:50;10.23;;;2.55;;
75413;SDS011;64758;52.122;5.404;2023-05-23T05:22:16;10.75;;;3.03;;
75413;SDS011;64758;52.122;5.404;2023-05-23T05:24:43;9.25;;;2.58;;
75413;SDS011;64758;52.122;5.404;2023-05-23T05:27:10;8.88;;;3.33;;
75413;SDS011;64758;52.122;5.404;2023-05-23T05:29:37;10.77;;;2.43;;
75413;SDS011;64758;52.122;5.404;2023-05-23T05:32:03;8.95;;;2.72;;
75413;SDS011;64758;52.122;5.404;2023-05-23T05:34:30;9.15;;;2.60;;
75413;SDS011;64758;52.122;5.404;2023-05-23T05:36:57;9.52;;;2.47;;
75413;SDS011;64758;52.122;5.404;2023-05-23T05:39:23;11.15;;;2.50;;
75413;SDS011;64758;52.122;5.404;2023-05-23T05:41:51;9.23;;;2.53;;
75413;SDS011;64758;52.122;5.404;2023-05-23T05:44:18;8.32;;;3.03;;
75413;SDS011;64758;52.122;5.404;2023-05-23T05:46:44;11.40;;;3.63;;
75413;SDS011;64758;52.122;5.404;2023-05-23T05:49:11;8.48;;;2.85;;
75413;SDS011;64758;52.122;5.404;2023-05-23T05:51:37;9.10;;;2.53;;
75413;SDS011;64758;52.122;5.404;2023-05-23T05:54:04;7.73;;;2.90;;
75413;SDS011;64758;52.122;5.404;2023-05-23T05:56:31;8.73;;;2.55;;
75413;SDS011;64758;52.122;5.404;2023-05-23T05:58:58;10.23;;;3.30;;
75413;SDS011;64758;52.122;5.404;2023-05-23T06:01:24;8.85;;;2.88;;
75413;SDS011;64758;52.122;5.404;2023-05-23T06:03:52;8.98;;;3.42;;
75413;SDS011;64758;52.122;5.404;2023-05-23T06:06:18;10.50;;;2.93;;
75413;SDS011;64758;52.122;5.404;2023-05-23T06:08:45;14.02;;;4.28;;
75413;SDS011;64758;52.122;5.404;2023-05-23T06:11:12;10.02;;;3.30;;
75413;SDS011;64758;52.122;5.404;2023-05-23T06:13:38;10.38;;;2.90;;
75413;SDS011;64758;52.122;5.404;2023-05-23T06:16:05;10.50;;;3.70;;
75413;SDS011;64758;52.122;5.404;2023-05-23T06:18:32;11.47;;;3.30;;
75413;SDS011;64758;52.122;5.404;2023-05-23T06:20:58;6.85;;;2.78;;
75413;SDS011;64758;52.122;5.404;2023-05-23T06:23:25;7.68;;;3.42;;
75413;SDS011;64758;52.122;5.404;2023-05-23T06:25:52;7.47;;;3.30;;
75413;SDS011;64758;52.122;5.404;2023-05-23T06:28:18;10.55;;;3.25;;
75413;SDS011;64758;52.122;5.404;2023-05-23T06:30:45;9.13;;;3.03;;
75413;SDS011;64758;52.122;5.404;2023-05-23T06:33:12;8.48;;;3.30;;
75413;SDS011;64758;52.122;5.404;2023-05-23T06:35:38;10.18;;;3.25;;
75413;SDS011;64758;52.122;5.404;2023-05-23T06:38:05;8.52;;;3.50;;
75413;SDS011;64758;52.122;5.404;2023-05-23T06:40:31;8.98;;;3.20;;
75413;SDS011;64758;52.122;5.404;2023-05-23T06:42:58;8.77;;;3.17;;
75413;SDS011;64758;52.122;5.404;2023-05-23T06:45:24;8.57;;;2.88;;
75413;SDS011;64758;52.122;5.404;2023-05-23T06:47:51;10.18;;;3.20;;
75413;SDS011;64758;52.122;5.404;2023-05-23T06:50:18;7.93;;;2.95;;
75413;SDS011;64758;52.122;5.404;2023-05-23T06:52:45;10.35;;;2.67;;
75413;SDS011;64758;52.122;5.404;2023-05-23T06:55:12;6.20;;;2.70;;
75413;SDS011;64758;52.122;5.404;2023-05-23T06:57:43;5.00;;;2.05;;
75413;SDS011;64758;52.122;5.404;2023-05-23T07:00:10;6.80;;;2.42;;
75413;SDS011;64758;52.122;5.404;2023-05-23T07:02:38;4.18;;;1.75;;
75413;SDS011;64758;52.122;5.404;2023-05-23T07:05:05;6.82;;;2.17;;
75413;SDS011;64758;52.122;5.404;2023-05-23T07:07:32;6.77;;;2.10;;
75413;SDS011;64758;52.122;5.404;2023-05-23T07:09:58;5.15;;;2.00;;
75413;SDS011;64758;52.122;5.404;2023-05-23T07:12:25;8.68;;;1.50;;
75413;SDS011;64758;52.122;5.404;2023-05-23T07:14:51;6.40;;;1.55;;
75413;SDS011;64758;52.122;5.404;2023-05-23T07:17:18;4.88;;;1.23;;
75413;SDS011;64758;52.122;5.404;2023-05-23T07:19:45;4.87;;;0.93;;
75413;SDS011;64758;52.122;5.404;2023-05-23T07:22:11;7.90;;;1.70;;
75413;SDS011;64758;52.122;5.404;2023-05-23T07:24:38;7.28;;;1.38;;
75413;SDS011;64758;52.122;5.404;2023-05-23T07:27:04;11.32;;;1.63;;
75413;SDS011;64758;52.122;5.404;2023-05-23T07:29:31;3.80;;;0.98;;
75413;SDS011;64758;52.122;5.404;2023-05-23T07:31:58;4.67;;;1.20;;
75413;SDS011;64758;52.122;5.404;2023-05-23T07:34:24;7.45;;;1.13;;
75413;SDS011;64758;52.122;5.404;2023-05-23T07:36:52;5.13;;;1.10;;
75413;SDS011;64758;52.122;5.404;2023-05-23T07:39:18;9.00;;;1.10;;
75413;SDS011;64758;52.122;5.404;2023-05-23T07:41:47;7.00;;;1.23;;
75413;SDS011;64758;52.122;5.404;2023-05-23T07:44:16;10.03;;;1.13;;
75413;SDS011;64758;52.122;5.404;2023-05-23T07:46:44;4.72;;;1.33;;
75413;SDS011;64758;52.122;5.404;2023-05-23T07:49:10;5.22;;;1.20;;
75413;SDS011;64758;52.122;5.404;2023-05-23T07:51:37;10.57;;;0.98;;
75413;SDS011;64758;52.122;5.404;2023-05-23T07:54:04;6.68;;;1.15;;
75413;SDS011;64758;52.122;5.404;2023-05-23T07:56:30;9.13;;;0.97;;
75413;SDS011;64758;52.122;5.404;2023-05-23T07:58:57;9.63;;;1.08;;
75413;SDS011;64758;52.122;5.404;2023-05-23T08:01:23;11.45;;;1.60;;
75413;SDS011;64758;52.122;5.404;2023-05-23T08:03:50;12.38;;;1.65;;
75413;SDS011;64758;52.122;5.404;2023-05-23T08:06:17;9.48;;;1.20;;
75413;SDS011;64758;52.122;5.404;2023-05-23T08:08:43;6.73;;;0.90;;
75413;SDS011;64758;52.122;5.404;2023-05-23T08:11:10;6.13;;;1.13;;
75413;SDS011;64758;52.122;5.404;2023-05-23T08:13:37;6.85;;;1.40;;
75413;SDS011;64758;52.122;5.404;2023-05-23T08:16:03;6.85;;;0.85;;
75413;SDS011;64758;52.122;5.404;2023-05-23T08:18:30;9.45;;;1.25;;
75413;SDS011;64758;52.122;5.404;2023-05-23T08:20:56;8.43;;;1.20;;
75413;SDS011;64758;52.122;5.404;2023-05-23T08:23:23;11.52;;;1.50;;
75413;SDS011;64758;52.122;5.404;2023-05-23T08:25:50;11.32;;;1.73;;
75413;SDS011;64758;52.122;5.404;2023-05-23T08:28:17;12.70;;;1.50;;
75413;SDS011;64758;52.122;5.404;2023-05-23T08:30:44;12.02;;;1.40;;
75413;SDS011;64758;52.122;5.404;2023-05-23T08:33:11;12.17;;;1.23;;
75413;SDS011;64758;52.122;5.404;2023-05-23T08:35:38;9.45;;;1.67;;
75413;SDS011;64758;52.122;5.404;2023-05-23T08:38:05;7.32;;;1.13;;
75413;SDS011;64758;52.122;5.404;2023-05-23T08:40:35;9.00;;;1.42;;
75413;SDS011;64758;52.122;5.404;2023-05-23T08:43:02;10.93;;;1.70;;
75413;SDS011;64758;52.122;5.404;2023-05-23T08:45:29;9.97;;;1.10;;
75413;SDS011;64758;52.122;5.404;2023-05-23T08:47:56;8.63;;;1.33;;
75413;SDS011;64758;52.122;5.404;2023-05-23T08:50:27;10.55;;;1.30;;
75413;SDS011;64758;52.122;5.404;2023-05-23T08:52:56;4.25;;;1.48;;
75413;SDS011;64758;52.122;5.404;2023-05-23T08:55:24;12.60;;;1.75;;
75413;SDS011;64758;52.122;5.404;2023-05-23T08:57:54;7.53;;;1.20;;
75413;SDS011;64758;52.122;5.404;2023-05-23T09:00:22;12.52;;;1.63;;
75413;SDS011;64758;52.122;5.404;2023-05-23T09:02:51;7.38;;;1.73;;
75413;SDS011;64758;52.122;5.404;2023-05-23T09:05:18;7.82;;;1.23;;
75413;SDS011;64758;52.122;5.404;2023-05-23T09:07:45;7.05;;;1.45;;
75413;SDS011;64758;52.122;5.404;2023-05-23T09:10:16;7.60;;;1.20;;
75413;SDS011;64758;52.122;5.404;2023-05-23T09:12:47;7.13;;;1.52;;
75413;SDS011;64758;52.122;5.404;2023-05-23T09:15:15;6.78;;;1.60;;
75413;SDS011;64758;52.122;5.404;2023-05-23T09:17:43;10.82;;;1.02;;
75413;SDS011;64758;52.122;5.404;2023-05-23T09:20:11;11.40;;;1.77;;
75413;SDS011;64758;52.122;5.404;2023-05-23T09:22:39;9.30;;;1.13;;
75413;SDS011;64758;52.122;5.404;2023-05-23T09:25:07;9.65;;;1.55;;
75413;SDS011;64758;52.122;5.404;2023-05-23T09:27:34;12.85;;;1.98;;
75413;SDS011;64758;52.122;5.404;2023-05-23T09:30:08;7.15;;;1.92;;
75413;SDS011;64758;52.122;5.404;2023-05-23T09:32:36;9.02;;;1.77;;
75413;SDS011;64758;52.122;5.404;2023-05-23T09:35:06;6.57;;;1.13;;
75413;SDS011;64758;52.122;5.404;2023-05-23T09:37:42;7.72;;;1.35;;
75413;SDS011;64758;52.122;5.404;2023-05-23T09:40:12;5.55;;;1.25;;
75413;SDS011;64758;52.122;5.404;2023-05-23T09:42:43;13.90;;;1.42;;
75413;SDS011;64758;52.122;5.404;2023-05-23T09:45:12;7.93;;;1.17;;
75413;SDS011;64758;52.122;5.404;2023-05-23T09:47:47;7.43;;;0.90;;
75413;SDS011;64758;52.122;5.404;2023-05-23T09:50:16;7.22;;;1.40;;
75413;SDS011;64758;52.122;5.404;2023-05-23T09:52:43;6.05;;;1.60;;
75413;SDS011;64758;52.122;5.404;2023-05-23T09:55:09;9.18;;;1.30;;
75413;SDS011;64758;52.122;5.404;2023-05-23T09:57:37;6.82;;;1.30;;
75413;SDS011;64758;52.122;5.404;2023-05-23T10:00:06;6.63;;;1.70;;
75413;SDS011;64758;52.122;5.404;2023-05-23T10:05:32;10.02;;;1.30;;
75413;SDS011;64758;52.122;5.404;2023-05-23T10:08:03;7.03;;;1.50;;
75413;SDS011;64758;52.122;5.404;2023-05-23T10:10:33;8.88;;;1.40;;
75413;SDS011;64758;52.122;5.404;2023-05-23T10:13:12;6.97;;;1.00;;
75413;SDS011;64758;52.122;5.404;2023-05-23T10:15:39;9.13;;;2.13;;
75413;SDS011;64758;52.122;5.404;2023-05-23T10:18:08;10.35;;;1.50;;
75413;SDS011;64758;52.122;5.404;2023-05-23T10:20:47;6.05;;;1.38;;
75413;SDS011;64758;52.122;5.404;2023-05-23T10:23:14;10.45;;;1.42;;
75413;SDS011;64758;52.122;5.404;2023-05-23T10:25:42;8.23;;;1.20;;
75413;SDS011;64758;52.122;5.404;2023-05-23T10:28:09;4.72;;;0.95;;
75413;SDS011;64758;52.122;5.404;2023-05-23T10:30:37;5.85;;;1.40;;
75413;SDS011;64758;52.122;5.404;2023-05-23T10:33:03;11.80;;;1.60;;
75413;SDS011;64758;52.122;5.404;2023-05-23T10:35:40;9.10;;;1.38;;
75413;SDS011;64758;52.122;5.404;2023-05-23T10:41:11;6.50;;;1.38;;
75413;SDS011;64758;52.122;5.404;2023-05-23T10:43:46;8.18;;;1.08;;
75413;SDS011;64758;52.122;5.404;2023-05-23T10:46:18;7.38;;;1.08;;
75413;SDS011;64758;52.122;5.404;2023-05-23T10:48:47;9.80;;;1.55;;
75413;SDS011;64758;52.122;5.404;2023-05-23T10:51:14;7.40;;;1.10;;
75413;SDS011;64758;52.122;5.404;2023-05-23T10:53:42;8.10;;;1.63;;
75413;SDS011;64758;52.122;5.404;2023-05-23T10:56:10;5.07;;;1.15;;
75413;SDS011;64758;52.122;5.404;2023-05-23T10:58:45;10.02;;;1.73;;
75413;SDS011;64758;52.122;5.404;2023-05-23T11:01:12;7.65;;;1.20;;
75413;SDS011;64758;52.122;5.404;2023-05-23T11:06:27;8.02;;;1.30;;
75413;SDS011;64758;52.122;5.404;2023-05-23T11:09:00;8.38;;;1.73;;
75413;SDS011;64758;52.122;5.404;2023-05-23T11:11:51;6.75;;;1.30;;
75413;SDS011;64758;52.122;5.404;2023-05-23T11:17:14;3.77;;;1.10;;
75413;SDS011;64758;52.122;5.404;2023-05-23T11:19:55;10.55;;;1.00;;
75413;SDS011;64758;52.122;5.404;2023-05-23T11:22:27;7.30;;;1.05;;
75413;SDS011;64758;52.122;5.404;2023-05-23T11:24:57;8.45;;;1.17;;
75413;SDS011;64758;52.122;5.404;2023-05-23T11:27:34;6.32;;;1.00;;
75413;SDS011;64758;52.122;5.404;2023-05-23T11:30:06;5.77;;;1.03;;
75413;SDS011;64758;52.122;5.404;2023-05-23T11:32:34;8.40;;;1.10;;
75413;SDS011;64758;52.122;5.404;2023-05-23T11:35:02;7.47;;;0.95;;
75413;SDS011;64758;52.122;5.404;2023-05-23T11:37:31;8.50;;;0.80;;
75413;SDS011;64758;52.122;5.404;2023-05-23T11:39:58;7.15;;;1.08;;
75413;SDS011;64758;52.122;5.404;2023-05-23T11:42:24;6.67;;;1.33;;
75413;SDS011;64758;52.122;5.404;2023-05-23T11:44:51;5.68;;;1.27;;
75413;SDS011;64758;52.122;5.404;2023-05-23T11:47:18;4.28;;;0.80;;
75413;SDS011;64758;52.122;5.404;2023-05-23T11:49:45;5.03;;;0.82;;
75413;SDS011;64758;52.122;5.404;2023-05-23T11:52:13;7.32;;;0.68;;
75413;SDS011;64758;52.122;5.404;2023-05-23T11:54:40;2.83;;;0.70;;
75413;SDS011;64758;52.122;5.404;2023-05-23T11:57:08;6.35;;;1.00;;
75413;SDS011;64758;52.122;5.404;2023-05-23T11:59:36;8.18;;;1.15;;
75413;SDS011;64758;52.122;5.404;2023-05-23T12:02:04;2.95;;;0.90;;
75413;SDS011;64758;52.122;5.404;2023-05-23T12:04:33;4.60;;;0.93;;
75413;SDS011;64758;52.122;5.404;2023-05-23T12:07:03;6.30;;;0.90;;
75413;SDS011;64758;52.122;5.404;2023-05-23T12:09:31;7.30;;;0.73;;
75413;SDS011;64758;52.122;5.404;2023-05-23T12:12:06;5.65;;;0.75;;
75413;SDS011;64758;52.122;5.404;2023-05-23T12:14:33;6.80;;;0.98;;
75413;SDS011;64758;52.122;5.404;2023-05-23T12:16:59;4.43;;;0.93;;
75413;SDS011;64758;52.122;5.404;2023-05-23T12:19:26;6.27;;;1.07;;
75413;SDS011;64758;52.122;5.404;2023-05-23T12:21:53;5.32;;;0.80;;
75413;SDS011;64758;52.122;5.404;2023-05-23T12:24:20;6.25;;;1.02;;
75413;SDS011;64758;52.122;5.404;2023-05-23T12:26:51;7.82;;;0.95;;
75413;SDS011;64758;52.122;5.404;2023-05-23T12:29:20;7.95;;;1.05;;
75413;SDS011;64758;52.122;5.404;2023-05-23T12:31:53;5.70;;;1.03;;
75413;SDS011;64758;52.122;5.404;2023-05-23T12:34:20;5.93;;;0.75;;
75413;SDS011;64758;52.122;5.404;2023-05-23T12:36:47;3.90;;;0.60;;
75413;SDS011;64758;52.122;5.404;2023-05-23T12:39:28;5.15;;;0.90;;
75413;SDS011;64758;52.122;5.404;2023-05-23T12:42:05;5.20;;;0.80;;
75413;SDS011;64758;52.122;5.404;2023-05-23T12:44:33;4.43;;;1.00;;
75413;SDS011;64758;52.122;5.404;2023-05-23T12:47:01;7.03;;;0.90;;
75413;SDS011;64758;52.122;5.404;2023-05-23T12:49:28;8.63;;;1.15;;
75413;SDS011;64758;52.122;5.404;2023-05-23T12:51:55;5.18;;;0.90;;
75413;SDS011;64758;52.122;5.404;2023-05-23T12:54:21;9.45;;;1.30;;
75413;SDS011;64758;52.122;5.404;2023-05-23T12:56:48;5.60;;;0.90;;
75413;SDS011;64758;52.122;5.404;2023-05-23T12:59:14;6.82;;;0.80;;
75413;SDS011;64758;52.122;5.404;2023-05-23T13:01:41;6.90;;;1.05;;
75413;SDS011;64758;52.122;5.404;2023-05-23T13:04:08;9.52;;;1.05;;
75413;SDS011;64758;52.122;5.404;2023-05-23T13:06:34;10.05;;;1.73;;
75413;SDS011;64758;52.122;5.404;2023-05-23T13:09:01;4.57;;;0.97;;
75413;SDS011;64758;52.122;5.404;2023-05-23T13:11:28;4.60;;;0.82;;
75413;SDS011;64758;52.122;5.404;2023-05-23T13:13:56;3.80;;;0.77;;
75413;SDS011;64758;52.122;5.404;2023-05-23T13:16:23;7.72;;;0.75;;
75413;SDS011;64758;52.122;5.404;2023-05-23T13:18:51;5.18;;;1.00;;
75413;SDS011;64758;52.122;5.404;2023-05-23T13:21:18;6.90;;;0.90;;
75413;SDS011;64758;52.122;5.404;2023-05-23T13:23:44;6.18;;;1.35;;
75413;SDS011;64758;52.122;5.404;2023-05-23T13:26:11;7.22;;;1.05;;
75413;SDS011;64758;52.122;5.404;2023-05-23T13:28:39;6.25;;;1.30;;
75413;SDS011;64758;52.122;5.404;2023-05-23T13:31:06;10.85;;;1.20;;
75413;SDS011;64758;52.122;5.404;2023-05-23T13:33:32;9.83;;;1.30;;
75413;SDS011;64758;52.122;5.404;2023-05-23T13:35:59;8.32;;;1.17;;
75413;SDS011;64758;52.122;5.404;2023-05-23T13:38:26;8.15;;;1.20;;
75413;SDS011;64758;52.122;5.404;2023-05-23T13:40:53;6.55;;;1.38;;
75413;SDS011;64758;52.122;5.404;2023-05-23T13:43:20;6.65;;;1.08;;
75413;SDS011;64758;52.122;5.404;2023-05-23T13:45:47;5.33;;;1.00;;
75413;SDS011;64758;52.122;5.404;2023-05-23T13:48:13;8.32;;;0.73;;
75413;SDS011;64758;52.122;5.404;2023-05-23T13:50:41;3.38;;;0.82;;
75413;SDS011;64758;52.122;5.404;2023-05-23T13:53:09;5.45;;;1.02;;
75413;SDS011;64758;52.122;5.404;2023-05-23T13:55:40;6.15;;;1.17;;
75413;SDS011;64758;52.122;5.404;2023-05-23T13:58:07;5.70;;;0.63;;
75413;SDS011;64758;52.122;5.404;2023-05-23T14:00:33;4.22;;;0.68;;
75413;SDS011;64758;52.122;5.404;2023-05-23T14:03:01;4.90;;;1.10;;
75413;SDS011;64758;52.122;5.404;2023-05-23T14:05:28;5.30;;;0.77;;
75413;SDS011;64758;52.122;5.404;2023-05-23T14:07:55;4.85;;;0.80;;
75413;SDS011;64758;52.122;5.404;2023-05-23T14:10:21;6.30;;;0.70;;
75413;SDS011;64758;52.122;5.404;2023-05-23T14:12:48;3.75;;;0.93;;
75413;SDS011;64758;52.122;5.404;2023-05-23T14:15:15;5.57;;;1.08;;
75413;SDS011;64758;52.122;5.404;2023-05-23T14:17:42;3.08;;;0.50;;
75413;SDS011;64758;52.122;5.404;2023-05-23T14:20:08;5.35;;;1.00;;
75413;SDS011;64758;52.122;5.404;2023-05-23T14:22:35;7.03;;;0.93;;
75413;SDS011;64758;52.122;5.404;2023-05-23T14:25:02;6.93;;;0.90;;
75413;SDS011;64758;52.122;5.404;2023-05-23T14:27:28;7.18;;;0.88;;
75413;SDS011;64758;52.122;5.404;2023-05-23T14:29:55;4.43;;;0.70;;
75413;SDS011;64758;52.122;5.404;2023-05-23T14:32:21;6.97;;;0.98;;
75413;SDS011;64758;52.122;5.404;2023-05-23T14:34:48;6.10;;;1.13;;
75413;SDS011;64758;52.122;5.404;2023-05-23T14:37:14;5.50;;;0.80;;
75413;SDS011;64758;52.122;5.404;2023-05-23T14:39:41;9.60;;;1.65;;
75413;SDS011;64758;52.122;5.404;2023-05-23T14:42:07;6.15;;;0.95;;
75413;SDS011;64758;52.122;5.404;2023-05-23T14:44:34;6.95;;;1.27;;
75413;SDS011;64758;52.122;5.404;2023-05-23T14:47:00;10.90;;;1.10;;
75413;SDS011;64758;52.122;5.404;2023-05-23T14:49:27;6.68;;;1.00;;
75413;SDS011;64758;52.122;5.404;2023-05-23T14:51:54;7.95;;;1.25;;
75413;SDS011;64758;52.122;5.404;2023-05-23T14:54:21;9.55;;;1.45;;
75413;SDS011;64758;52.122;5.404;2023-05-23T14:56:47;9.02;;;1.30;;
75413;SDS011;64758;52.122;5.404;2023-05-23T14:59:17;8.47;;;1.00;;
75413;SDS011;64758;52.122;5.404;2023-05-23T15:01:44;6.85;;;1.25;;
75413;SDS011;64758;52.122;5.404;2023-05-23T15:04:11;4.78;;;1.00;;
75413;SDS011;64758;52.122;5.404;2023-05-23T15:06:39;7.63;;;1.20;;
75413;SDS011;64758;52.122;5.404;2023-05-23T15:09:05;4.22;;;0.93;;